sensor_id;sensor_type;location;lat;lon;timestamp;P1;durP1;ratioP1;P2;durP2;ratioP2
70467;SDS011;57934;51.532;7.684;2023-04-03T00:00:54;8.95;;;5.00;;
70467;SDS011;57934;51.532;7.684;2023-04-03T00:03:20;7.45;;;4.57;;
70467;SDS011;57934;51.532;7.684;2023-04-03T00:05:46;7.25;;;4.38;;
70467;SDS011;57934;51.532;7.684;2023-04-03T00:08:12;4.53;;;4.05;;
70467;SDS011;57934;51.532;7.684;2023-04-03T00:10:39;6.70;;;4.40;;
70467;SDS011;57934;51.532;7.684;2023-04-03T00:13:05;8.43;;;4.35;;
70467;SDS011;57934;51.532;7.684;2023-04-03T00:15:32;5.65;;;3.80;;
70467;SDS011;57934;51.532;7.684;2023-04-03T00:17:59;6.50;;;3.75;;
70467;SDS011;57934;51.532;7.684;2023-04-03T00:20:25;6.40;;;3.90;;
70467;SDS011;57934;51.532;7.684;2023-04-03T00:22:53;5.47;;;3.45;;
70467;SDS011;57934;51.532;7.684;2023-04-03T00:25:19;4.72;;;3.63;;
70467;SDS011;57934;51.532;7.684;2023-04-03T00:27:45;6.93;;;3.58;;
70467;SDS011;57934;51.532;7.684;2023-04-03T00:30:13;5.50;;;3.35;;
70467;SDS011;57934;51.532;7.684;2023-04-03T00:32:41;9.30;;;3.80;;
70467;SDS011;57934;51.532;7.684;2023-04-03T00:35:07;6.50;;;3.90;;
70467;SDS011;57934;51.532;7.684;2023-04-03T00:37:33;9.27;;;3.53;;
70467;SDS011;57934;51.532;7.684;2023-04-03T00:39:59;5.53;;;3.50;;
70467;SDS011;57934;51.532;7.684;2023-04-03T00:42:26;8.45;;;3.45;;
70467;SDS011;57934;51.532;7.684;2023-04-03T00:47:21;6.50;;;3.58;;
70467;SDS011;57934;51.532;7.684;2023-04-03T00:49:48;3.85;;;2.80;;
70467;SDS011;57934;51.532;7.684;2023-04-03T00:52:16;7.18;;;3.05;;
70467;SDS011;57934;51.532;7.684;2023-04-03T00:54:45;7.28;;;3.17;;
70467;SDS011;57934;51.532;7.684;2023-04-03T00:57:14;8.13;;;3.17;;
70467;SDS011;57934;51.532;7.684;2023-04-03T00:59:43;8.68;;;2.95;;
70467;SDS011;57934;51.532;7.684;2023-04-03T01:02:12;5.35;;;2.88;;
70467;SDS011;57934;51.532;7.684;2023-04-03T01:04:39;5.07;;;2.80;;
70467;SDS011;57934;51.532;7.684;2023-04-03T01:07:08;4.70;;;2.70;;
70467;SDS011;57934;51.532;7.684;2023-04-03T01:09:37;5.72;;;2.65;;
70467;SDS011;57934;51.532;7.684;2023-04-03T01:12:15;6.93;;;2.90;;
70467;SDS011;57934;51.532;7.684;2023-04-03T01:14:48;6.28;;;2.83;;
70467;SDS011;57934;51.532;7.684;2023-04-03T01:25:45;8.57;;;2.70;;
70467;SDS011;57934;51.532;7.684;2023-04-03T01:28:16;6.05;;;2.50;;
70467;SDS011;57934;51.532;7.684;2023-04-03T01:30:50;6.68;;;2.50;;
70467;SDS011;57934;51.532;7.684;2023-04-03T01:33:26;5.75;;;2.75;;
70467;SDS011;57934;51.532;7.684;2023-04-03T01:35:53;4.95;;;2.30;;
70467;SDS011;57934;51.532;7.684;2023-04-03T01:38:20;5.50;;;2.28;;
70467;SDS011;57934;51.532;7.684;2023-04-03T01:40:46;7.65;;;2.88;;
70467;SDS011;57934;51.532;7.684;2023-04-03T01:43:12;7.25;;;2.42;;
70467;SDS011;57934;51.532;7.684;2023-04-03T01:45:38;5.95;;;2.30;;
70467;SDS011;57934;51.532;7.684;2023-04-03T01:48:04;7.15;;;2.22;;
70467;SDS011;57934;51.532;7.684;2023-04-03T01:50:31;5.70;;;2.10;;
70467;SDS011;57934;51.532;7.684;2023-04-03T01:52:57;6.93;;;2.50;;
70467;SDS011;57934;51.532;7.684;2023-04-03T01:55:23;7.32;;;2.28;;
70467;SDS011;57934;51.532;7.684;2023-04-03T01:57:49;5.38;;;2.50;;
70467;SDS011;57934;51.532;7.684;2023-04-03T02:00:15;4.57;;;2.40;;
70467;SDS011;57934;51.532;7.684;2023-04-03T02:02:42;3.80;;;2.40;;
70467;SDS011;57934;51.532;7.684;2023-04-03T02:05:08;2.83;;;1.95;;
70467;SDS011;57934;51.532;7.684;2023-04-03T02:07:34;2.42;;;1.58;;
70467;SDS011;57934;51.532;7.684;2023-04-03T02:10:00;3.53;;;1.90;;
70467;SDS011;57934;51.532;7.684;2023-04-03T02:12:27;6.03;;;2.50;;
70467;SDS011;57934;51.532;7.684;2023-04-03T02:14:53;8.95;;;2.90;;
70467;SDS011;57934;51.532;7.684;2023-04-03T02:17:19;6.35;;;2.35;;
70467;SDS011;57934;51.532;7.684;2023-04-03T02:19:45;4.95;;;1.80;;
70467;SDS011;57934;51.532;7.684;2023-04-03T02:22:11;5.90;;;2.30;;
70467;SDS011;57934;51.532;7.684;2023-04-03T02:24:37;6.07;;;2.70;;
70467;SDS011;57934;51.532;7.684;2023-04-03T02:27:05;6.25;;;2.55;;
70467;SDS011;57934;51.532;7.684;2023-04-03T02:29:32;5.85;;;2.42;;
70467;SDS011;57934;51.532;7.684;2023-04-03T02:31:58;7.97;;;2.40;;
70467;SDS011;57934;51.532;7.684;2023-04-03T02:34:24;7.55;;;2.65;;
70467;SDS011;57934;51.532;7.684;2023-04-03T02:36:52;4.75;;;1.90;;
70467;SDS011;57934;51.532;7.684;2023-04-03T02:39:19;5.60;;;2.20;;
70467;SDS011;57934;51.532;7.684;2023-04-03T02:41:45;3.65;;;2.00;;
70467;SDS011;57934;51.532;7.684;2023-04-03T02:44:17;5.47;;;2.35;;
70467;SDS011;57934;51.532;7.684;2023-04-03T02:46:44;4.40;;;2.33;;
70467;SDS011;57934;51.532;7.684;2023-04-03T02:49:10;6.68;;;2.28;;
70467;SDS011;57934;51.532;7.684;2023-04-03T02:51:36;3.30;;;1.98;;
70467;SDS011;57934;51.532;7.684;2023-04-03T02:54:03;4.00;;;2.00;;
70467;SDS011;57934;51.532;7.684;2023-04-03T02:56:32;4.60;;;2.15;;
70467;SDS011;57934;51.532;7.684;2023-04-03T02:58:58;8.75;;;2.40;;
70467;SDS011;57934;51.532;7.684;2023-04-03T03:01:25;6.25;;;2.08;;
70467;SDS011;57934;51.532;7.684;2023-04-03T03:03:54;7.25;;;2.30;;
70467;SDS011;57934;51.532;7.684;2023-04-03T03:06:20;5.28;;;2.17;;
70467;SDS011;57934;51.532;7.684;2023-04-03T03:08:46;3.35;;;2.10;;
70467;SDS011;57934;51.532;7.684;2023-04-03T03:11:13;5.90;;;2.50;;
70467;SDS011;57934;51.532;7.684;2023-04-03T03:13:39;4.35;;;2.08;;
70467;SDS011;57934;51.532;7.684;2023-04-03T03:16:05;4.03;;;2.05;;
70467;SDS011;57934;51.532;7.684;2023-04-03T03:18:32;5.80;;;2.40;;
70467;SDS011;57934;51.532;7.684;2023-04-03T03:21:00;6.28;;;2.95;;
70467;SDS011;57934;51.532;7.684;2023-04-03T03:23:28;4.55;;;1.85;;
70467;SDS011;57934;51.532;7.684;2023-04-03T03:25:56;7.97;;;2.58;;
70467;SDS011;57934;51.532;7.684;2023-04-03T03:28:24;5.32;;;2.03;;
70467;SDS011;57934;51.532;7.684;2023-04-03T03:30:50;9.07;;;1.88;;
70467;SDS011;57934;51.532;7.684;2023-04-03T03:33:17;3.83;;;2.00;;
70467;SDS011;57934;51.532;7.684;2023-04-03T03:35:44;4.75;;;2.00;;
70467;SDS011;57934;51.532;7.684;2023-04-03T03:38:10;3.97;;;2.00;;
70467;SDS011;57934;51.532;7.684;2023-04-03T03:40:37;4.80;;;1.92;;
70467;SDS011;57934;51.532;7.684;2023-04-03T03:43:04;7.55;;;3.38;;
70467;SDS011;57934;51.532;7.684;2023-04-03T03:45:31;7.40;;;2.10;;
70467;SDS011;57934;51.532;7.684;2023-04-03T03:47:57;4.75;;;2.30;;
70467;SDS011;57934;51.532;7.684;2023-04-03T03:50:23;5.97;;;2.10;;
70467;SDS011;57934;51.532;7.684;2023-04-03T03:52:50;3.10;;;1.70;;
70467;SDS011;57934;51.532;7.684;2023-04-03T03:55:17;8.65;;;2.30;;
70467;SDS011;57934;51.532;7.684;2023-04-03T03:57:44;8.48;;;2.22;;
70467;SDS011;57934;51.532;7.684;2023-04-03T04:00:10;4.90;;;2.10;;
70467;SDS011;57934;51.532;7.684;2023-04-03T04:02:48;5.80;;;2.50;;
70467;SDS011;57934;51.532;7.684;2023-04-03T04:05:17;4.55;;;1.90;;
70467;SDS011;57934;51.532;7.684;2023-04-03T04:07:44;6.95;;;2.45;;
70467;SDS011;57934;51.532;7.684;2023-04-03T04:10:10;5.25;;;2.03;;
70467;SDS011;57934;51.532;7.684;2023-04-03T04:12:36;4.07;;;2.05;;
70467;SDS011;57934;51.532;7.684;2023-04-03T04:15:03;4.97;;;2.10;;
70467;SDS011;57934;51.532;7.684;2023-04-03T04:17:30;7.80;;;2.60;;
70467;SDS011;57934;51.532;7.684;2023-04-03T04:19:57;7.55;;;2.53;;
70467;SDS011;57934;51.532;7.684;2023-04-03T04:22:23;5.57;;;2.10;;
70467;SDS011;57934;51.532;7.684;2023-04-03T04:24:51;7.18;;;2.30;;
70467;SDS011;57934;51.532;7.684;2023-04-03T04:27:17;8.18;;;2.80;;
70467;SDS011;57934;51.532;7.684;2023-04-03T04:29:43;7.63;;;3.22;;
70467;SDS011;57934;51.532;7.684;2023-04-03T04:32:09;4.65;;;2.13;;
70467;SDS011;57934;51.532;7.684;2023-04-03T04:34:36;8.43;;;2.53;;
70467;SDS011;57934;51.532;7.684;2023-04-03T04:37:02;3.13;;;2.00;;
70467;SDS011;57934;51.532;7.684;2023-04-03T04:39:29;5.80;;;2.33;;
70467;SDS011;57934;51.532;7.684;2023-04-03T04:41:57;3.00;;;2.25;;
70467;SDS011;57934;51.532;7.684;2023-04-03T04:44:25;4.95;;;2.50;;
70467;SDS011;57934;51.532;7.684;2023-04-03T04:46:51;5.68;;;2.92;;
70467;SDS011;57934;51.532;7.684;2023-04-03T04:49:17;5.53;;;2.72;;
70467;SDS011;57934;51.532;7.684;2023-04-03T04:51:43;5.57;;;2.72;;
70467;SDS011;57934;51.532;7.684;2023-04-03T04:54:10;5.68;;;2.33;;
70467;SDS011;57934;51.532;7.684;2023-04-03T04:56:37;6.93;;;2.97;;
70467;SDS011;57934;51.532;7.684;2023-04-03T04:59:03;6.13;;;2.58;;
70467;SDS011;57934;51.532;7.684;2023-04-03T05:01:30;7.00;;;2.40;;
70467;SDS011;57934;51.532;7.684;2023-04-03T05:04:07;6.45;;;2.85;;
70467;SDS011;57934;51.532;7.684;2023-04-03T05:06:33;10.00;;;2.58;;
70467;SDS011;57934;51.532;7.684;2023-04-03T05:09:02;8.25;;;2.70;;
70467;SDS011;57934;51.532;7.684;2023-04-03T05:11:29;5.30;;;2.67;;
70467;SDS011;57934;51.532;7.684;2023-04-03T05:13:56;5.40;;;2.55;;
70467;SDS011;57934;51.532;7.684;2023-04-03T05:16:23;6.20;;;2.60;;
70467;SDS011;57934;51.532;7.684;2023-04-03T05:18:51;6.45;;;2.67;;
70467;SDS011;57934;51.532;7.684;2023-04-03T05:21:19;8.27;;;2.80;;
70467;SDS011;57934;51.532;7.684;2023-04-03T05:23:49;6.72;;;2.65;;
70467;SDS011;57934;51.532;7.684;2023-04-03T05:26:15;10.55;;;3.03;;
70467;SDS011;57934;51.532;7.684;2023-04-03T05:28:43;10.38;;;2.63;;
70467;SDS011;57934;51.532;7.684;2023-04-03T05:31:10;5.68;;;2.83;;
70467;SDS011;57934;51.532;7.684;2023-04-03T05:33:37;7.72;;;3.17;;
70467;SDS011;57934;51.532;7.684;2023-04-03T05:36:06;5.57;;;2.63;;
70467;SDS011;57934;51.532;7.684;2023-04-03T05:38:36;9.63;;;2.70;;
70467;SDS011;57934;51.532;7.684;2023-04-03T05:41:03;6.55;;;3.08;;
70467;SDS011;57934;51.532;7.684;2023-04-03T05:43:29;7.00;;;2.65;;
70467;SDS011;57934;51.532;7.684;2023-04-03T05:45:55;10.68;;;3.22;;
70467;SDS011;57934;51.532;7.684;2023-04-03T05:48:25;5.00;;;2.33;;
70467;SDS011;57934;51.532;7.684;2023-04-03T05:50:51;5.78;;;2.33;;
70467;SDS011;57934;51.532;7.684;2023-04-03T05:53:24;7.35;;;2.80;;
70467;SDS011;57934;51.532;7.684;2023-04-03T05:55:54;6.88;;;2.42;;
70467;SDS011;57934;51.532;7.684;2023-04-03T05:58:21;6.43;;;2.72;;
70467;SDS011;57934;51.532;7.684;2023-04-03T06:00:49;6.38;;;2.70;;
70467;SDS011;57934;51.532;7.684;2023-04-03T06:03:16;7.72;;;2.47;;
70467;SDS011;57934;51.532;7.684;2023-04-03T06:05:42;5.05;;;2.33;;
70467;SDS011;57934;51.532;7.684;2023-04-03T06:08:10;6.47;;;2.20;;
70467;SDS011;57934;51.532;7.684;2023-04-03T06:10:36;5.60;;;2.30;;
70467;SDS011;57934;51.532;7.684;2023-04-03T06:13:03;5.90;;;2.88;;
70467;SDS011;57934;51.532;7.684;2023-04-03T06:15:29;5.43;;;2.13;;
70467;SDS011;57934;51.532;7.684;2023-04-03T06:17:55;8.88;;;2.42;;
70467;SDS011;57934;51.532;7.684;2023-04-03T06:20:22;6.00;;;2.75;;
70467;SDS011;57934;51.532;7.684;2023-04-03T06:22:49;6.00;;;2.30;;
70467;SDS011;57934;51.532;7.684;2023-04-03T06:25:15;5.72;;;2.00;;
70467;SDS011;57934;51.532;7.684;2023-04-03T06:27:43;7.80;;;2.47;;
70467;SDS011;57934;51.532;7.684;2023-04-03T06:30:09;10.20;;;2.10;;
70467;SDS011;57934;51.532;7.684;2023-04-03T06:32:36;9.32;;;2.00;;
70467;SDS011;57934;51.532;7.684;2023-04-03T06:35:03;6.20;;;2.42;;
70467;SDS011;57934;51.532;7.684;2023-04-03T06:37:31;11.80;;;2.30;;
70467;SDS011;57934;51.532;7.684;2023-04-03T06:39:58;5.82;;;1.90;;
70467;SDS011;57934;51.532;7.684;2023-04-03T06:42:26;4.38;;;1.98;;
70467;SDS011;57934;51.532;7.684;2023-04-03T06:45:08;7.10;;;1.95;;
70467;SDS011;57934;51.532;7.684;2023-04-03T06:47:37;6.45;;;2.42;;
70467;SDS011;57934;51.532;7.684;2023-04-03T06:50:03;7.75;;;2.05;;
70467;SDS011;57934;51.532;7.684;2023-04-03T06:52:29;6.05;;;2.45;;
70467;SDS011;57934;51.532;7.684;2023-04-03T06:54:56;4.10;;;1.88;;
70467;SDS011;57934;51.532;7.684;2023-04-03T06:57:25;5.00;;;2.25;;
70467;SDS011;57934;51.532;7.684;2023-04-03T06:59:51;3.92;;;1.92;;
70467;SDS011;57934;51.532;7.684;2023-04-03T07:02:17;7.38;;;2.05;;
70467;SDS011;57934;51.532;7.684;2023-04-03T07:04:44;8.05;;;2.35;;
70467;SDS011;57934;51.532;7.684;2023-04-03T07:07:10;5.28;;;2.28;;
70467;SDS011;57934;51.532;7.684;2023-04-03T07:09:36;6.60;;;2.22;;
70467;SDS011;57934;51.532;7.684;2023-04-03T07:12:02;6.35;;;2.40;;
70467;SDS011;57934;51.532;7.684;2023-04-03T07:14:28;5.57;;;1.77;;
70467;SDS011;57934;51.532;7.684;2023-04-03T07:16:55;5.80;;;2.13;;
70467;SDS011;57934;51.532;7.684;2023-04-03T07:19:21;5.80;;;1.88;;
70467;SDS011;57934;51.532;7.684;2023-04-03T07:21:47;10.00;;;2.00;;
70467;SDS011;57934;51.532;7.684;2023-04-03T07:24:13;4.97;;;1.67;;
70467;SDS011;57934;51.532;7.684;2023-04-03T07:26:39;8.25;;;2.25;;
70467;SDS011;57934;51.532;7.684;2023-04-03T07:29:05;4.10;;;1.58;;
70467;SDS011;57934;51.532;7.684;2023-04-03T07:31:31;10.52;;;1.90;;
70467;SDS011;57934;51.532;7.684;2023-04-03T07:33:57;7.68;;;1.90;;
70467;SDS011;57934;51.532;7.684;2023-04-03T07:36:23;6.93;;;2.00;;
70467;SDS011;57934;51.532;7.684;2023-04-03T07:38:49;6.50;;;1.83;;
70467;SDS011;57934;51.532;7.684;2023-04-03T07:41:16;3.45;;;2.05;;
70467;SDS011;57934;51.532;7.684;2023-04-03T07:43:44;7.68;;;2.03;;
70467;SDS011;57934;51.532;7.684;2023-04-03T07:46:10;5.47;;;1.92;;
70467;SDS011;57934;51.532;7.684;2023-04-03T07:48:36;11.05;;;2.42;;
70467;SDS011;57934;51.532;7.684;2023-04-03T07:51:03;7.10;;;2.63;;
70467;SDS011;57934;51.532;7.684;2023-04-03T07:53:30;5.97;;;1.83;;
70467;SDS011;57934;51.532;7.684;2023-04-03T07:55:58;7.35;;;1.75;;
70467;SDS011;57934;51.532;7.684;2023-04-03T07:58:25;8.13;;;1.85;;
70467;SDS011;57934;51.532;7.684;2023-04-03T08:00:51;6.72;;;2.10;;
70467;SDS011;57934;51.532;7.684;2023-04-03T08:03:17;4.53;;;1.70;;
70467;SDS011;57934;51.532;7.684;2023-04-03T08:05:44;8.00;;;1.90;;
70467;SDS011;57934;51.532;7.684;2023-04-03T08:08:13;5.72;;;1.65;;
70467;SDS011;57934;51.532;7.684;2023-04-03T08:10:45;4.72;;;2.15;;
70467;SDS011;57934;51.532;7.684;2023-04-03T08:13:14;6.10;;;1.60;;
70467;SDS011;57934;51.532;7.684;2023-04-03T08:15:40;3.25;;;1.50;;
70467;SDS011;57934;51.532;7.684;2023-04-03T08:18:07;8.65;;;1.77;;
70467;SDS011;57934;51.532;7.684;2023-04-03T08:20:33;6.68;;;2.00;;
70467;SDS011;57934;51.532;7.684;2023-04-03T08:22:59;8.50;;;2.45;;
70467;SDS011;57934;51.532;7.684;2023-04-03T08:25:25;4.13;;;1.63;;
70467;SDS011;57934;51.532;7.684;2023-04-03T08:27:52;3.03;;;1.55;;
70467;SDS011;57934;51.532;7.684;2023-04-03T08:30:18;5.72;;;1.60;;
70467;SDS011;57934;51.532;7.684;2023-04-03T08:32:46;5.00;;;1.70;;
70467;SDS011;57934;51.532;7.684;2023-04-03T08:35:12;5.40;;;1.63;;
70467;SDS011;57934;51.532;7.684;2023-04-03T08:37:38;4.47;;;1.73;;
70467;SDS011;57934;51.532;7.684;2023-04-03T08:40:06;3.90;;;1.30;;
70467;SDS011;57934;51.532;7.684;2023-04-03T08:43:00;6.47;;;1.80;;
70467;SDS011;57934;51.532;7.684;2023-04-03T08:45:47;6.70;;;1.90;;
70467;SDS011;57934;51.532;7.684;2023-04-03T08:48:59;8.07;;;2.17;;
70467;SDS011;57934;51.532;7.684;2023-04-03T08:51:17;9.20;;;2.00;;
70467;SDS011;57934;51.532;7.684;2023-04-03T08:53:55;9.15;;;2.20;;
70467;SDS011;57934;51.532;7.684;2023-04-03T08:56:26;6.68;;;1.98;;
70467;SDS011;57934;51.532;7.684;2023-04-03T08:58:55;5.30;;;1.80;;
70467;SDS011;57934;51.532;7.684;2023-04-03T09:01:30;6.18;;;2.05;;
70467;SDS011;57934;51.532;7.684;2023-04-03T09:04:01;6.35;;;1.88;;
70467;SDS011;57934;51.532;7.684;2023-04-03T09:06:29;5.38;;;2.20;;
70467;SDS011;57934;51.532;7.684;2023-04-03T09:17:22;3.10;;;1.73;;
70467;SDS011;57934;51.532;7.684;2023-04-03T09:22:53;4.63;;;1.67;;
70467;SDS011;57934;51.532;7.684;2023-04-03T09:25:38;4.38;;;1.70;;
70467;SDS011;57934;51.532;7.684;2023-04-03T09:28:05;5.40;;;1.75;;
70467;SDS011;57934;51.532;7.684;2023-04-03T09:30:35;3.28;;;1.75;;
70467;SDS011;57934;51.532;7.684;2023-04-03T09:33:02;6.40;;;1.75;;
70467;SDS011;57934;51.532;7.684;2023-04-03T09:35:30;1.83;;;1.42;;
70467;SDS011;57934;51.532;7.684;2023-04-03T09:40:38;6.97;;;1.80;;
70467;SDS011;57934;51.532;7.684;2023-04-03T09:43:51;5.78;;;1.70;;
70467;SDS011;57934;51.532;7.684;2023-04-03T09:48:57;2.63;;;1.65;;
70467;SDS011;57934;51.532;7.684;2023-04-03T09:51:28;3.75;;;1.50;;
70467;SDS011;57934;51.532;7.684;2023-04-03T09:53:55;4.82;;;1.60;;
70467;SDS011;57934;51.532;7.684;2023-04-03T09:56:23;4.55;;;1.77;;
70467;SDS011;57934;51.532;7.684;2023-04-03T10:01:33;6.70;;;1.52;;
70467;SDS011;57934;51.532;7.684;2023-04-03T10:09:28;5.10;;;1.40;;
70467;SDS011;57934;51.532;7.684;2023-04-03T10:12:03;5.47;;;1.60;;
70467;SDS011;57934;51.532;7.684;2023-04-03T10:14:38;3.10;;;1.50;;
70467;SDS011;57934;51.532;7.684;2023-04-03T10:25:20;2.30;;;1.25;;
70467;SDS011;57934;51.532;7.684;2023-04-03T10:28:04;3.05;;;1.25;;
70467;SDS011;57934;51.532;7.684;2023-04-03T10:30:48;3.00;;;1.23;;
70467;SDS011;57934;51.532;7.684;2023-04-03T10:33:27;7.57;;;1.25;;
70467;SDS011;57934;51.532;7.684;2023-04-03T10:36:12;2.10;;;1.00;;
70467;SDS011;57934;51.532;7.684;2023-04-03T10:39:02;2.90;;;1.00;;
70467;SDS011;57934;51.532;7.684;2023-04-03T10:46:55;3.55;;;1.17;;
70467;SDS011;57934;51.532;7.684;2023-04-03T10:52:29;3.05;;;1.13;;
70467;SDS011;57934;51.532;7.684;2023-04-03T10:55:30;1.52;;;0.88;;
70467;SDS011;57934;51.532;7.684;2023-04-03T10:58:01;2.83;;;0.98;;
70467;SDS011;57934;51.532;7.684;2023-04-03T11:00:39;1.38;;;0.95;;
70467;SDS011;57934;51.532;7.684;2023-04-03T11:03:11;2.10;;;0.80;;
70467;SDS011;57934;51.532;7.684;2023-04-03T11:05:42;1.10;;;0.80;;
70467;SDS011;57934;51.532;7.684;2023-04-03T11:08:26;2.30;;;1.10;;
70467;SDS011;57934;51.532;7.684;2023-04-03T11:11:27;3.00;;;1.02;;
70467;SDS011;57934;51.532;7.684;2023-04-03T11:14:02;2.88;;;0.95;;
70467;SDS011;57934;51.532;7.684;2023-04-03T11:16:48;2.35;;;0.73;;
70467;SDS011;57934;51.532;7.684;2023-04-03T11:19:34;2.83;;;1.02;;
70467;SDS011;57934;51.532;7.684;2023-04-03T11:24:42;1.98;;;0.90;;
70467;SDS011;57934;51.532;7.684;2023-04-03T11:27:16;3.03;;;1.02;;
70467;SDS011;57934;51.532;7.684;2023-04-03T11:29:48;2.90;;;1.10;;
70467;SDS011;57934;51.532;7.684;2023-04-03T11:35:02;3.58;;;1.00;;
70467;SDS011;57934;51.532;7.684;2023-04-03T11:37:33;2.65;;;0.90;;
70467;SDS011;57934;51.532;7.684;2023-04-03T11:40:04;2.33;;;1.20;;
70467;SDS011;57934;51.532;7.684;2023-04-03T11:42:34;2.20;;;1.00;;
70467;SDS011;57934;51.532;7.684;2023-04-03T11:45:16;1.85;;;0.70;;
70467;SDS011;57934;51.532;7.684;2023-04-03T11:47:50;5.20;;;0.80;;
70467;SDS011;57934;51.532;7.684;2023-04-03T11:53:00;2.20;;;1.02;;
70467;SDS011;57934;51.532;7.684;2023-04-03T12:16:34;2.33;;;0.90;;
70467;SDS011;57934;51.532;7.684;2023-04-03T12:24:26;4.35;;;1.10;;
70467;SDS011;57934;51.532;7.684;2023-04-03T12:37:54;4.78;;;1.00;;
70467;SDS011;57934;51.532;7.684;2023-04-03T12:45:56;3.15;;;0.95;;
70467;SDS011;57934;51.532;7.684;2023-04-03T12:48:29;2.13;;;1.10;;
70467;SDS011;57934;51.532;7.684;2023-04-03T12:50:59;6.00;;;1.23;;
70467;SDS011;57934;51.532;7.684;2023-04-03T12:53:27;5.90;;;1.15;;
70467;SDS011;57934;51.532;7.684;2023-04-03T12:56:18;4.53;;;1.00;;
70467;SDS011;57934;51.532;7.684;2023-04-03T13:01:42;3.28;;;1.08;;
70467;SDS011;57934;51.532;7.684;2023-04-03T13:04:18;3.40;;;0.93;;
70467;SDS011;57934;51.532;7.684;2023-04-03T13:06:47;5.75;;;1.20;;
70467;SDS011;57934;51.532;7.684;2023-04-03T13:09:23;1.30;;;0.85;;
70467;SDS011;57934;51.532;7.684;2023-04-03T13:11:58;2.15;;;0.80;;
70467;SDS011;57934;51.532;7.684;2023-04-03T13:17:09;4.35;;;0.77;;
70467;SDS011;57934;51.532;7.684;2023-04-03T13:19:39;2.65;;;1.10;;
70467;SDS011;57934;51.532;7.684;2023-04-03T13:22:10;3.22;;;1.02;;
70467;SDS011;57934;51.532;7.684;2023-04-03T13:24:51;3.63;;;1.08;;
70467;SDS011;57934;51.532;7.684;2023-04-03T13:27:19;3.80;;;1.00;;
70467;SDS011;57934;51.532;7.684;2023-04-03T13:29:49;1.90;;;0.75;;
70467;SDS011;57934;51.532;7.684;2023-04-03T13:32:18;4.65;;;1.25;;
70467;SDS011;57934;51.532;7.684;2023-04-03T13:34:47;3.58;;;0.93;;
70467;SDS011;57934;51.532;7.684;2023-04-03T13:37:22;3.00;;;1.00;;
70467;SDS011;57934;51.532;7.684;2023-04-03T13:40:08;3.00;;;1.20;;
70467;SDS011;57934;51.532;7.684;2023-04-03T13:42:38;3.72;;;1.20;;
70467;SDS011;57934;51.532;7.684;2023-04-03T13:45:28;3.75;;;0.88;;
70467;SDS011;57934;51.532;7.684;2023-04-03T13:53:24;2.00;;;0.95;;
70467;SDS011;57934;51.532;7.684;2023-04-03T13:55:59;2.58;;;1.10;;
70467;SDS011;57934;51.532;7.684;2023-04-03T13:58:26;2.83;;;0.98;;
70467;SDS011;57934;51.532;7.684;2023-04-03T14:03:44;2.20;;;1.13;;
70467;SDS011;57934;51.532;7.684;2023-04-03T14:06:35;2.88;;;1.20;;
70467;SDS011;57934;51.532;7.684;2023-04-03T14:09:02;4.03;;;1.20;;
70467;SDS011;57934;51.532;7.684;2023-04-03T14:11:29;5.82;;;1.23;;
70467;SDS011;57934;51.532;7.684;2023-04-03T14:13:57;3.33;;;0.93;;
70467;SDS011;57934;51.532;7.684;2023-04-03T14:16:29;2.28;;;0.90;;
70467;SDS011;57934;51.532;7.684;2023-04-03T14:18:59;2.65;;;1.27;;
70467;SDS011;57934;51.532;7.684;2023-04-03T14:21:25;2.20;;;1.15;;
70467;SDS011;57934;51.532;7.684;2023-04-03T14:23:52;3.17;;;1.10;;
70467;SDS011;57934;51.532;7.684;2023-04-03T14:26:22;3.47;;;1.00;;
70467;SDS011;57934;51.532;7.684;2023-04-03T14:28:50;2.85;;;1.00;;
70467;SDS011;57934;51.532;7.684;2023-04-03T14:31:19;2.08;;;1.00;;
70467;SDS011;57934;51.532;7.684;2023-04-03T14:33:46;5.45;;;1.48;;
70467;SDS011;57934;51.532;7.684;2023-04-03T14:36:25;4.45;;;1.00;;
70467;SDS011;57934;51.532;7.684;2023-04-03T14:38:54;2.45;;;1.05;;
70467;SDS011;57934;51.532;7.684;2023-04-03T14:41:22;3.58;;;1.35;;
70467;SDS011;57934;51.532;7.684;2023-04-03T14:43:50;4.30;;;1.25;;
70467;SDS011;57934;51.532;7.684;2023-04-03T14:46:17;3.72;;;1.48;;
70467;SDS011;57934;51.532;7.684;2023-04-03T14:48:54;3.50;;;1.08;;
70467;SDS011;57934;51.532;7.684;2023-04-03T14:51:21;1.08;;;0.88;;
70467;SDS011;57934;51.532;7.684;2023-04-03T14:53:48;3.85;;;1.10;;
70467;SDS011;57934;51.532;7.684;2023-04-03T14:56:16;2.15;;;1.13;;
70467;SDS011;57934;51.532;7.684;2023-04-03T14:58:44;3.10;;;1.20;;
70467;SDS011;57934;51.532;7.684;2023-04-03T15:01:14;2.83;;;1.52;;
70467;SDS011;57934;51.532;7.684;2023-04-03T15:03:40;3.58;;;1.48;;
70467;SDS011;57934;51.532;7.684;2023-04-03T15:06:08;2.60;;;1.08;;
70467;SDS011;57934;51.532;7.684;2023-04-03T15:08:37;3.00;;;1.23;;
70467;SDS011;57934;51.532;7.684;2023-04-03T15:11:03;3.30;;;1.30;;
70467;SDS011;57934;51.532;7.684;2023-04-03T15:13:29;4.10;;;1.30;;
70467;SDS011;57934;51.532;7.684;2023-04-03T15:15:56;2.90;;;1.20;;
70467;SDS011;57934;51.532;7.684;2023-04-03T15:18:23;6.15;;;1.70;;
70467;SDS011;57934;51.532;7.684;2023-04-03T15:20:54;2.47;;;1.65;;
70467;SDS011;57934;51.532;7.684;2023-04-03T15:23:21;3.75;;;1.30;;
70467;SDS011;57934;51.532;7.684;2023-04-03T15:25:51;2.00;;;1.10;;
70467;SDS011;57934;51.532;7.684;2023-04-03T15:28:22;3.08;;;1.08;;
70467;SDS011;57934;51.532;7.684;2023-04-03T15:30:53;3.55;;;1.50;;
70467;SDS011;57934;51.532;7.684;2023-04-03T15:33:19;1.60;;;1.25;;
70467;SDS011;57934;51.532;7.684;2023-04-03T15:35:45;4.85;;;1.25;;
70467;SDS011;57934;51.532;7.684;2023-04-03T15:38:12;7.80;;;1.33;;
70467;SDS011;57934;51.532;7.684;2023-04-03T15:40:38;4.88;;;1.50;;
70467;SDS011;57934;51.532;7.684;2023-04-03T15:43:05;2.25;;;1.35;;
70467;SDS011;57934;51.532;7.684;2023-04-03T15:45:32;3.17;;;1.25;;
70467;SDS011;57934;51.532;7.684;2023-04-03T15:48:01;3.03;;;1.30;;
70467;SDS011;57934;51.532;7.684;2023-04-03T15:50:29;1.52;;;0.90;;
70467;SDS011;57934;51.532;7.684;2023-04-03T15:52:56;3.67;;;1.23;;
70467;SDS011;57934;51.532;7.684;2023-04-03T15:55:24;6.25;;;1.40;;
70467;SDS011;57934;51.532;7.684;2023-04-03T15:57:52;4.43;;;1.40;;
70467;SDS011;57934;51.532;7.684;2023-04-03T16:00:19;3.13;;;1.60;;
70467;SDS011;57934;51.532;7.684;2023-04-03T16:02:51;5.45;;;1.45;;
70467;SDS011;57934;51.532;7.684;2023-04-03T16:06:03;3.28;;;1.33;;
70467;SDS011;57934;51.532;7.684;2023-04-03T16:08:29;3.10;;;1.50;;
70467;SDS011;57934;51.532;7.684;2023-04-03T16:10:55;3.47;;;1.25;;
70467;SDS011;57934;51.532;7.684;2023-04-03T16:13:22;3.85;;;1.00;;
70467;SDS011;57934;51.532;7.684;2023-04-03T16:15:48;3.97;;;1.40;;
70467;SDS011;57934;51.532;7.684;2023-04-03T16:18:15;2.92;;;1.15;;
70467;SDS011;57934;51.532;7.684;2023-04-03T16:20:41;2.42;;;0.90;;
70467;SDS011;57934;51.532;7.684;2023-04-03T16:23:09;2.38;;;1.05;;
70467;SDS011;57934;51.532;7.684;2023-04-03T16:25:35;1.73;;;0.90;;
70467;SDS011;57934;51.532;7.684;2023-04-03T16:28:01;1.77;;;1.52;;
70467;SDS011;57934;51.532;7.684;2023-04-03T16:30:28;3.25;;;1.30;;
70467;SDS011;57934;51.532;7.684;2023-04-03T16:32:56;2.28;;;1.30;;
70467;SDS011;57934;51.532;7.684;2023-04-03T16:35:22;5.10;;;1.40;;
70467;SDS011;57934;51.532;7.684;2023-04-03T16:37:48;2.92;;;1.40;;
70467;SDS011;57934;51.532;7.684;2023-04-03T16:40:14;2.22;;;1.30;;
70467;SDS011;57934;51.532;7.684;2023-04-03T16:42:41;3.15;;;1.70;;
70467;SDS011;57934;51.532;7.684;2023-04-03T16:45:07;4.60;;;1.33;;
70467;SDS011;57934;51.532;7.684;2023-04-03T16:47:34;3.45;;;1.30;;
70467;SDS011;57934;51.532;7.684;2023-04-03T16:50:00;6.40;;;1.50;;
70467;SDS011;57934;51.532;7.684;2023-04-03T16:52:26;4.13;;;1.15;;
70467;SDS011;57934;51.532;7.684;2023-04-03T16:54:53;2.60;;;1.45;;
70467;SDS011;57934;51.532;7.684;2023-04-03T16:57:21;1.88;;;1.35;;